createdAt,value
2017-04-03T00:00:20.170Z,19.47
2017-04-03T00:01:31.521Z,19.49
2017-04-03T00:01:59.787Z,19.45
2017-04-03T00:02:28.143Z,19.49
2017-04-03T00:02:56.489Z,19.5
2017-04-03T00:03:24.922Z,19.49
2017-04-03T00:03:53.283Z,19.47
2017-04-03T00:04:21.642Z,19.38
2017-04-03T00:04:49.872Z,19.39
2017-04-03T00:05:18.267Z,19.39
2017-04-03T00:05:46.632Z,19.35
2017-04-03T00:06:14.997Z,19.44
2017-04-03T00:07:26.353Z,19.38
2017-04-03T00:07:54.638Z,19.39
2017-04-03T00:08:22.996Z,19.41
2017-04-03T00:08:51.351Z,19.34
2017-04-03T00:09:19.801Z,19.44
2017-04-03T00:09:48.069Z,19.45
2017-04-03T00:10:16.400Z,19.45
2017-04-03T00:10:44.640Z,19.41
2017-04-03T00:11:13.108Z,19.39
2017-04-03T00:11:41.475Z,19.32
2017-04-03T00:12:09.825Z,19.38
2017-04-03T00:13:21.512Z,19.39
2017-04-03T00:13:49.801Z,19.39
2017-04-03T00:14:18.170Z,19.45
2017-04-03T00:14:46.522Z,19.41
2017-04-03T00:15:14.977Z,19.41
2017-04-03T00:15:43.246Z,19.38
2017-04-03T00:16:11.402Z,19.37
2017-04-03T00:16:39.929Z,19.39
2017-04-03T00:17:08.368Z,19.37
2017-04-03T00:17:36.757Z,19.35
2017-04-03T00:18:05.022Z,19.35
2017-04-03T00:19:16.381Z,19.27
2017-04-03T00:19:44.727Z,19.27
2017-04-03T00:20:13.073Z,19.31
2017-04-03T00:20:41.560Z,19.31
2017-04-03T00:21:09.981Z,19.24
2017-04-03T00:21:38.152Z,19.26
2017-04-03T00:22:06.592Z,19.19
2017-04-03T00:22:34.921Z,19.2
2017-04-03T00:23:03.478Z,19.2
2017-04-03T00:23:31.764Z,19.3
2017-04-03T00:24:00.100Z,19.24
2017-04-03T00:25:11.711Z,19.26
2017-04-03T00:25:40.113Z,19.24
2017-04-03T00:26:08.375Z,19.23
2017-04-03T00:26:36.748Z,19.23
2017-04-03T00:27:05.167Z,19.22
2017-04-03T00:27:33.349Z,19.3
2017-04-03T00:28:01.685Z,19.17
2017-04-03T00:28:30.011Z,19.24
2017-04-03T00:28:58.442Z,19.16
2017-04-03T00:29:26.827Z,19.16
2017-04-03T00:29:55.203Z,19.08
2017-04-03T00:31:06.552Z,19.04
2017-04-03T00:31:34.955Z,19.12
2017-04-03T00:32:03.300Z,19.09
2017-04-03T00:32:31.555Z,19.08
2017-04-03T00:32:59.900Z,19.07
2017-04-03T00:33:28.484Z,18.96
2017-04-03T00:33:56.952Z,18.94
2017-04-03T00:34:25.185Z,18.93
2017-04-03T00:34:53.568Z,18.98
2017-04-03T00:35:21.952Z,18.97
2017-04-03T00:35:50.135Z,19
2017-04-03T00:37:02.245Z,18.93
2017-04-03T00:37:30.559Z,18.93
2017-04-03T00:37:58.822Z,18.91
2017-04-03T00:38:27.107Z,18.94
2017-04-03T00:38:55.541Z,19
2017-04-03T00:39:23.819Z,19.05
2017-04-03T00:39:52.292Z,18.93
2017-04-03T00:40:20.520Z,18.94
2017-04-03T00:40:49.036Z,18.91
2017-04-03T00:41:17.532Z,18.94
2017-04-03T00:41:45.738Z,18.86
2017-04-03T00:42:57.085Z,18.89
2017-04-03T00:43:25.398Z,18.88
2017-04-03T00:43:53.643Z,18.94
2017-04-03T00:44:22.009Z,18.96
2017-04-03T00:44:50.412Z,18.82
2017-04-03T00:45:18.683Z,18.94
2017-04-03T00:45:47.001Z,18.86
2017-04-03T00:46:15.336Z,18.86
2017-04-03T00:46:43.632Z,18.82
2017-04-03T00:47:12.005Z,18.81
2017-04-03T00:47:40.382Z,18.85
2017-04-03T00:48:51.735Z,18.85
2017-04-03T00:49:20.125Z,18.71
2017-04-03T00:49:48.361Z,18.79
2017-04-03T00:50:16.670Z,18.79
2017-04-03T00:50:44.845Z,18.7
2017-04-03T00:51:13.217Z,18.71
2017-04-03T00:51:41.639Z,18.75
2017-04-03T00:52:09.965Z,18.74
2017-04-03T00:52:38.458Z,18.66
2017-04-03T00:53:06.847Z,18.67
2017-04-03T00:53:35.035Z,18.67
2017-04-03T00:54:46.389Z,18.67
2017-04-03T00:55:14.679Z,18.64
2017-04-03T00:55:42.782Z,18.64
2017-04-03T00:56:11.090Z,18.6
2017-04-03T00:56:39.416Z,18.64
2017-04-03T00:57:07.759Z,18.74
2017-04-03T00:57:36.156Z,18.7
2017-04-03T00:58:04.480Z,18.71
2017-04-03T00:58:32.899Z,18.68
2017-04-03T00:59:01.288Z,18.61
2017-04-03T00:59:29.428Z,18.66
2017-04-03T01:00:40.926Z,18.63
2017-04-03T01:01:09.315Z,18.68
2017-04-03T01:01:37.476Z,18.66
2017-04-03T01:02:05.763Z,18.64
2017-04-03T01:02:34.094Z,18.67
2017-04-03T01:03:02.444Z,18.67
2017-04-03T01:03:30.853Z,18.64
2017-04-03T01:03:59.183Z,18.71
2017-04-03T01:04:27.579Z,18.7
2017-04-03T01:04:55.679Z,18.71
2017-04-03T01:05:23.842Z,18.67
2017-04-03T01:06:35.193Z,18.68
2017-04-03T01:07:03.902Z,18.64
2017-04-03T01:07:32.249Z,18.66
2017-04-03T01:08:00.542Z,18.71
2017-04-03T01:08:28.876Z,18.74
2017-04-03T01:08:57.257Z,18.64
2017-04-03T01:09:25.691Z,18.7
2017-04-03T01:09:53.919Z,18.64
2017-04-03T01:10:22.337Z,18.76
2017-04-03T01:10:50.634Z,18.64
2017-04-03T01:11:18.997Z,18.68
2017-04-03T01:12:30.173Z,18.7
2017-04-03T01:12:58.589Z,18.75
2017-04-03T01:13:26.944Z,18.67
2017-04-03T01:13:55.180Z,18.74
2017-04-03T01:14:23.450Z,18.75
2017-04-03T01:14:51.701Z,18.78
2017-04-03T01:15:20.097Z,18.75
2017-04-03T01:15:48.429Z,18.74
2017-04-03T01:16:16.746Z,18.78
2017-04-03T01:16:45.106Z,18.76
2017-04-03T01:17:13.368Z,18.76
2017-04-03T01:18:24.719Z,18.75
2017-04-03T01:18:53.090Z,18.7
2017-04-03T01:19:21.433Z,18.79
2017-04-03T01:19:49.800Z,18.74
2017-04-03T01:20:18.283Z,18.76
2017-04-03T01:20:46.462Z,18.75
2017-04-03T01:21:14.918Z,18.81
2017-04-03T01:21:43.819Z,18.71
2017-04-03T01:22:12.354Z,18.71
2017-04-03T01:22:40.746Z,18.71
2017-04-03T01:23:08.990Z,18.68
2017-04-03T01:24:20.340Z,18.74
2017-04-03T01:24:48.739Z,18.71
2017-04-03T01:25:17.007Z,18.75
2017-04-03T01:25:45.382Z,18.74
2017-04-03T01:26:13.707Z,18.74
2017-04-03T01:26:42.087Z,18.68
2017-04-03T01:27:10.507Z,18.74
2017-04-03T01:27:38.742Z,18.75
2017-04-03T01:28:07.213Z,18.74
2017-04-03T01:28:35.557Z,18.74
2017-04-03T01:29:03.792Z,18.78
2017-04-03T01:30:15.143Z,18.75
2017-04-03T01:30:43.515Z,18.71
2017-04-03T01:31:11.760Z,18.76
2017-04-03T01:31:40.111Z,18.68
2017-04-03T01:32:08.460Z,18.75
2017-04-03T01:32:36.753Z,18.75
2017-04-03T01:33:05.519Z,18.79
2017-04-03T01:33:33.854Z,18.7
2017-04-03T01:34:02.350Z,18.68
2017-04-03T01:34:30.715Z,18.74
2017-04-03T01:34:58.887Z,18.67
2017-04-03T01:36:10.237Z,18.68
2017-04-03T01:36:38.551Z,18.82
2017-04-03T01:37:06.814Z,18.71
2017-04-03T01:37:35.103Z,18.88
2017-04-03T01:38:03.466Z,18.75
2017-04-03T01:38:31.759Z,18.75
2017-04-03T01:39:00.194Z,18.75
2017-04-03T01:39:28.340Z,18.71
2017-04-03T01:39:56.863Z,18.74
2017-04-03T01:40:24.945Z,18.74
2017-04-03T01:40:53.343Z,18.75
2017-04-03T01:42:04.691Z,18.75
2017-04-03T01:42:33.041Z,18.75
2017-04-03T01:43:01.373Z,18.7
2017-04-03T01:43:29.655Z,18.78
2017-04-03T01:43:57.791Z,18.79
2017-04-03T01:44:26.011Z,18.83
2017-04-03T01:44:54.421Z,18.75
2017-04-03T01:45:23.712Z,18.78
2017-04-03T01:45:52.155Z,18.75
2017-04-03T01:46:20.789Z,18.75
2017-04-03T01:46:48.886Z,18.82
2017-04-03T01:48:00.237Z,18.83
2017-04-03T01:48:28.514Z,18.71
2017-04-03T01:48:56.682Z,18.78
2017-04-03T01:49:24.815Z,18.81
2017-04-03T01:49:53.104Z,18.71
2017-04-03T01:50:21.428Z,18.76
2017-04-03T01:50:49.879Z,18.75
2017-04-03T01:51:18.014Z,18.74
2017-04-03T01:51:46.339Z,18.64
2017-04-03T01:52:14.760Z,18.68
2017-04-03T01:52:43.056Z,18.7
2017-04-03T01:53:54.405Z,18.67
2017-04-03T01:54:22.726Z,18.68
2017-04-03T01:54:50.893Z,18.68
2017-04-03T01:55:19.121Z,18.67
2017-04-03T01:55:47.356Z,18.68
2017-04-03T01:56:15.694Z,18.66
2017-04-03T01:56:44.123Z,18.64
2017-04-03T01:57:12.353Z,18.58
2017-04-03T01:57:40.753Z,18.56
2017-04-03T01:58:09.005Z,18.58
2017-04-03T01:58:37.265Z,18.58
2017-04-03T01:59:48.614Z,18.6
2017-04-03T02:00:16.824Z,18.54
2017-04-03T02:00:44.999Z,18.45
2017-04-03T02:01:13.262Z,18.58
2017-04-03T02:01:41.486Z,18.56
2017-04-03T02:02:09.657Z,18.57
2017-04-03T02:02:38.128Z,18.61
2017-04-03T02:03:06.453Z,18.54
2017-04-03T02:03:34.814Z,18.52
2017-04-03T02:04:03.209Z,18.58
2017-04-03T02:04:31.393Z,18.63
2017-04-03T02:05:42.743Z,18.57
2017-04-03T02:06:11.063Z,18.56
2017-04-03T02:06:39.241Z,18.58
2017-04-03T02:07:07.573Z,18.56
2017-04-03T02:07:35.959Z,18.56
2017-04-03T02:08:04.156Z,18.56
2017-04-03T02:08:32.608Z,18.49
2017-04-03T02:09:00.941Z,18.52
2017-04-03T02:09:29.337Z,18.6
2017-04-03T02:09:58.705Z,18.57
2017-04-03T02:10:27.096Z,18.54
2017-04-03T02:11:38.458Z,18.51
2017-04-03T02:12:06.868Z,18.51
2017-04-03T02:12:35.231Z,18.48
2017-04-03T02:13:03.597Z,18.48
2017-04-03T02:13:32.052Z,18.49
2017-04-03T02:14:00.408Z,18.6
2017-04-03T02:14:29.636Z,18.51
2017-04-03T02:14:57.769Z,18.49
2017-04-03T02:15:26.325Z,18.54
2017-04-03T02:15:54.716Z,18.49
2017-04-03T02:16:23.430Z,18.51
2017-04-03T02:17:34.602Z,18.52
2017-04-03T02:18:02.768Z,18.45
2017-04-03T02:18:31.110Z,18.48
2017-04-03T02:18:59.418Z,18.43
2017-04-03T02:19:27.723Z,18.49
2017-04-03T02:19:55.972Z,18.49
2017-04-03T02:20:24.269Z,18.41
2017-04-03T02:20:52.595Z,18.51
2017-04-03T02:21:20.978Z,18.42
2017-04-03T02:21:49.258Z,18.52
2017-04-03T02:22:17.596Z,18.45
2017-04-03T02:23:28.953Z,18.51
2017-04-03T02:23:57.295Z,18.48
2017-04-03T02:24:25.642Z,18.43
2017-04-03T02:24:53.866Z,18.42
2017-04-03T02:25:22.175Z,18.48
2017-04-03T02:25:50.508Z,18.42
2017-04-03T02:26:18.824Z,18.45
2017-04-03T02:26:47.155Z,18.43
2017-04-03T02:27:15.582Z,18.42
2017-04-03T02:27:43.843Z,18.49
2017-04-03T02:28:12.089Z,18.48
2017-04-03T02:29:23.450Z,18.51
2017-04-03T02:29:51.774Z,18.41
2017-04-03T02:30:20.019Z,18.48
2017-04-03T02:30:48.246Z,18.42
2017-04-03T02:31:16.486Z,18.51
2017-04-03T02:31:44.673Z,18.49
2017-04-03T02:32:13.064Z,18.42
2017-04-03T02:32:41.392Z,18.48
2017-04-03T02:33:09.716Z,18.52
2017-04-03T02:33:37.969Z,18.41
2017-04-03T02:34:06.202Z,18.45
2017-04-03T02:35:17.555Z,18.45
2017-04-03T02:35:45.777Z,18.45
2017-04-03T02:36:13.937Z,18.42
2017-04-03T02:36:42.143Z,18.48
2017-04-03T02:37:10.455Z,18.48
2017-04-03T02:37:38.752Z,18.42
2017-04-03T02:38:07.039Z,18.54
2017-04-03T02:38:35.371Z,18.39
2017-04-03T02:39:03.693Z,18.41
2017-04-03T02:39:32.037Z,18.42
2017-04-03T02:40:00.385Z,18.42
2017-04-03T02:41:11.644Z,18.45
2017-04-03T02:41:39.978Z,18.42
2017-04-03T02:42:08.132Z,18.51
2017-04-03T02:42:36.342Z,18.39
2017-04-03T02:43:04.629Z,18.41
2017-04-03T02:43:32.944Z,18.45
2017-04-03T02:44:01.331Z,18.43
2017-04-03T02:44:29.563Z,18.51
2017-04-03T02:44:57.964Z,18.46
2017-04-03T02:45:26.312Z,18.45
2017-04-03T02:45:54.635Z,18.49
2017-04-03T02:47:05.894Z,18.52
2017-04-03T02:47:34.137Z,18.52
2017-04-03T02:48:02.385Z,18.51
2017-04-03T02:48:30.606Z,18.56
2017-04-03T02:48:58.965Z,18.46
2017-04-03T02:49:27.276Z,18.41
2017-04-03T02:49:55.647Z,18.45
2017-04-03T02:50:23.977Z,18.52
2017-04-03T02:50:52.351Z,18.56
2017-04-03T02:51:20.587Z,18.63
2017-04-03T02:51:48.622Z,18.51
2017-04-03T02:53:00.723Z,18.46
2017-04-03T02:53:29.006Z,18.46
2017-04-03T02:53:57.238Z,18.54
2017-04-03T02:54:25.510Z,18.49
2017-04-03T02:54:53.658Z,18.51
2017-04-03T02:55:21.957Z,18.54
2017-04-03T02:55:50.016Z,18.57
2017-04-03T02:56:18.253Z,18.51
2017-04-03T02:56:46.310Z,18.56
2017-04-03T02:57:14.619Z,18.49
2017-04-03T02:57:42.740Z,18.6
2017-04-03T02:58:54.097Z,18.54
2017-04-03T02:59:22.368Z,18.51
2017-04-03T02:59:50.695Z,18.56
2017-04-03T03:00:18.874Z,18.56
2017-04-03T03:00:46.946Z,18.49
2017-04-03T03:01:15.157Z,18.48
2017-04-03T03:01:43.825Z,18.52
2017-04-03T03:02:12.057Z,18.48
2017-04-03T03:02:40.388Z,18.51
2017-04-03T03:03:08.614Z,18.56
2017-04-03T03:03:36.947Z,18.41
2017-04-03T03:04:48.295Z,18.49
2017-04-03T03:05:16.290Z,18.54
2017-04-03T03:05:44.432Z,18.49
2017-04-03T03:06:12.621Z,18.46
2017-04-03T03:06:40.888Z,18.48
2017-04-03T03:07:09.012Z,18.48
2017-04-03T03:07:37.278Z,18.46
2017-04-03T03:08:05.604Z,18.43
2017-04-03T03:08:33.851Z,18.43
2017-04-03T03:09:02.175Z,18.46
2017-04-03T03:09:30.492Z,18.42
2017-04-03T03:10:41.845Z,18.42
2017-04-03T03:11:10.118Z,18.38
2017-04-03T03:11:38.164Z,18.45
2017-04-03T03:12:06.342Z,18.41
2017-04-03T03:12:34.592Z,18.42
2017-04-03T03:13:02.899Z,18.45
2017-04-03T03:13:31.152Z,18.42
2017-04-03T03:13:59.482Z,18.39
2017-04-03T03:14:27.726Z,18.51
2017-04-03T03:14:56.031Z,18.48
2017-04-03T03:15:24.255Z,18.43
2017-04-03T03:16:35.327Z,18.45
2017-04-03T03:17:03.623Z,18.51
2017-04-03T03:17:31.770Z,18.49
2017-04-03T03:18:00.037Z,18.51
2017-04-03T03:18:28.201Z,18.45
2017-04-03T03:18:56.509Z,18.52
2017-04-03T03:19:24.567Z,18.49
2017-04-03T03:19:52.892Z,18.54
2017-04-03T03:20:21.128Z,18.51
2017-04-03T03:20:49.345Z,18.52
2017-04-03T03:21:17.566Z,18.52
2017-04-03T03:22:29.118Z,18.57
2017-04-03T03:22:57.117Z,18.54
2017-04-03T03:23:25.441Z,18.54
2017-04-03T03:23:53.524Z,18.54
2017-04-03T03:24:21.759Z,18.54
2017-04-03T03:24:49.881Z,18.51
2017-04-03T03:25:17.939Z,18.54
2017-04-03T03:25:46.265Z,18.54
2017-04-03T03:26:14.498Z,18.57
2017-04-03T03:26:42.618Z,18.43
2017-04-03T03:27:10.749Z,18.51
2017-04-03T03:28:22.100Z,18.54
2017-04-03T03:28:50.282Z,18.56
2017-04-03T03:29:18.246Z,18.54
2017-04-03T03:29:46.513Z,18.43
2017-04-03T03:30:14.847Z,18.54
2017-04-03T03:30:42.965Z,18.54
2017-04-03T03:31:11.111Z,18.56
2017-04-03T03:31:39.340Z,18.51
2017-04-03T03:32:07.572Z,18.48
2017-04-03T03:32:35.685Z,18.51
2017-04-03T03:33:03.906Z,18.57
2017-04-03T03:34:15.209Z,18.52
2017-04-03T03:34:43.487Z,18.43
2017-04-03T03:35:11.719Z,18.49
2017-04-03T03:35:39.898Z,18.49
2017-04-03T03:36:08.226Z,18.51
2017-04-03T03:36:36.438Z,18.43
2017-04-03T03:37:04.488Z,18.52
2017-04-03T03:37:32.724Z,18.42
2017-04-03T03:38:00.952Z,18.54
2017-04-03T03:38:29.164Z,18.46
2017-04-03T03:38:57.479Z,18.42
2017-04-03T03:40:08.827Z,18.51
2017-04-03T03:40:37.099Z,18.46
2017-04-03T03:41:05.240Z,18.43
2017-04-03T03:41:33.511Z,18.45
2017-04-03T03:42:01.745Z,18.48
2017-04-03T03:42:29.866Z,18.49
2017-04-03T03:42:58.015Z,18.46
2017-04-03T03:43:26.343Z,18.46
2017-04-03T03:43:54.488Z,18.49
2017-04-03T03:44:22.702Z,18.46
2017-04-03T03:44:50.919Z,18.46
2017-04-03T03:46:02.081Z,18.46
2017-04-03T03:46:30.266Z,18.46
2017-04-03T03:46:58.497Z,18.46
2017-04-03T03:47:26.769Z,18.48
2017-04-03T03:47:55.099Z,18.49
2017-04-03T03:48:23.305Z,18.43
2017-04-03T03:48:51.461Z,18.46
2017-04-03T03:49:19.695Z,18.42
2017-04-03T03:49:48.031Z,18.42
2017-04-03T03:50:16.321Z,18.38
2017-04-03T03:50:44.541Z,18.43
2017-04-03T03:51:55.803Z,18.48
2017-04-03T03:52:23.891Z,18.42
2017-04-03T03:52:52.122Z,18.51
2017-04-03T03:53:20.205Z,18.43
2017-04-03T03:53:48.444Z,18.38
2017-04-03T03:54:16.652Z,18.45
2017-04-03T03:54:44.988Z,18.52
2017-04-03T03:55:13.315Z,18.38
2017-04-03T03:55:41.548Z,18.42
2017-04-03T03:56:09.855Z,18.42
2017-04-03T03:56:38.171Z,18.45
2017-04-03T03:57:49.431Z,18.45
2017-04-03T03:58:17.512Z,18.42
2017-04-03T03:58:45.735Z,18.39
2017-04-03T03:59:14.003Z,18.41
2017-04-03T03:59:42.138Z,18.43
2017-04-03T04:00:10.257Z,18.39
2017-04-03T04:00:38.409Z,18.45
2017-04-03T04:01:06.635Z,18.45
2017-04-03T04:01:34.861Z,18.41
2017-04-03T04:02:03.073Z,18.45
2017-04-03T04:02:31.293Z,18.38
2017-04-03T04:03:42.641Z,18.42
2017-04-03T04:04:10.734Z,18.36
2017-04-03T04:04:38.869Z,18.42
2017-04-03T04:05:07.038Z,18.41
2017-04-03T04:05:35.361Z,18.39
2017-04-03T04:06:03.478Z,18.39
2017-04-03T04:06:31.711Z,18.33
2017-04-03T04:06:59.848Z,18.36
2017-04-03T04:07:28.081Z,18.43
2017-04-03T04:07:56.104Z,18.34
2017-04-03T04:08:24.140Z,18.42
2017-04-03T04:09:35.393Z,18.33
2017-04-03T04:10:03.485Z,18.31
2017-04-03T04:10:31.715Z,18.33
2017-04-03T04:10:59.985Z,18.36
2017-04-03T04:11:28.036Z,18.34
2017-04-03T04:11:56.243Z,18.31
2017-04-03T04:12:24.485Z,18.38
2017-04-03T04:12:52.714Z,18.33
2017-04-03T04:13:20.846Z,18.3
2017-04-03T04:13:49.057Z,18.33
2017-04-03T04:14:17.369Z,18.36
2017-04-03T04:15:28.720Z,18.36
2017-04-03T04:15:56.714Z,18.38
2017-04-03T04:16:24.940Z,18.36
2017-04-03T04:16:53.116Z,18.38
2017-04-03T04:17:21.445Z,18.33
2017-04-03T04:17:49.656Z,18.31
2017-04-03T04:18:17.616Z,18.33
2017-04-03T04:18:45.848Z,18.33
2017-04-03T04:19:13.980Z,18.34
2017-04-03T04:19:42.276Z,18.33
2017-04-03T04:20:10.307Z,18.36
2017-04-03T04:21:21.562Z,18.36
2017-04-03T04:21:49.557Z,18.38
2017-04-03T04:22:17.604Z,18.36
2017-04-03T04:22:45.778Z,18.34
2017-04-03T04:23:14.013Z,18.36
2017-04-03T04:23:42.317Z,18.36
2017-04-03T04:24:10.370Z,18.31
2017-04-03T04:24:38.608Z,18.3
2017-04-03T04:25:06.835Z,18.33
2017-04-03T04:25:34.850Z,18.34
2017-04-03T04:26:03.073Z,18.31
2017-04-03T04:27:14.426Z,18.34
2017-04-03T04:27:42.420Z,18.3
2017-04-03T04:28:10.653Z,18.28
2017-04-03T04:28:38.740Z,18.34
2017-04-03T04:29:06.975Z,18.31
2017-04-03T04:29:35.279Z,18.3
2017-04-03T04:30:03.610Z,18.33
2017-04-03T04:30:31.937Z,18.34
2017-04-03T04:31:00.075Z,18.36
2017-04-03T04:31:28.371Z,18.33
2017-04-03T04:31:56.497Z,18.31
2017-04-03T04:33:07.658Z,18.33
2017-04-03T04:33:35.749Z,18.36
2017-04-03T04:34:03.985Z,18.3
2017-04-03T04:34:32.165Z,18.31
2017-04-03T04:35:00.492Z,18.36
2017-04-03T04:35:28.697Z,18.31
2017-04-03T04:35:56.938Z,18.33
2017-04-03T04:36:25.076Z,18.38
2017-04-03T04:36:53.217Z,18.36
2017-04-03T04:37:21.422Z,18.38
2017-04-03T04:37:49.648Z,18.31
2017-04-03T04:39:00.994Z,18.36
2017-04-03T04:39:29.265Z,18.39
2017-04-03T04:39:57.505Z,18.38
2017-04-03T04:40:25.780Z,18.31
2017-04-03T04:40:54.107Z,18.38
2017-04-03T04:41:22.314Z,18.34
2017-04-03T04:41:50.467Z,18.33
2017-04-03T04:42:18.786Z,18.34
2017-04-03T04:42:47.113Z,18.31
2017-04-03T04:43:15.413Z,18.33
2017-04-03T04:43:43.725Z,18.33
2017-04-03T04:44:55.078Z,18.38
2017-04-03T04:45:23.169Z,18.33
2017-04-03T04:45:51.328Z,18.34
2017-04-03T04:46:19.505Z,18.31
2017-04-03T04:46:47.739Z,18.34
2017-04-03T04:47:15.887Z,18.31
2017-04-03T04:47:43.857Z,18.31
2017-04-03T04:48:12.184Z,18.38
2017-04-03T04:48:40.415Z,18.34
2017-04-03T04:49:08.535Z,18.3
2017-04-03T04:49:36.850Z,18.38
2017-04-03T04:50:48.113Z,18.28
2017-04-03T04:51:16.291Z,18.31
2017-04-03T04:51:44.617Z,18.3
2017-04-03T04:52:12.885Z,18.3
2017-04-03T04:52:40.939Z,18.28
2017-04-03T04:53:09.246Z,18.28
2017-04-03T04:53:37.588Z,18.28
2017-04-03T04:54:05.819Z,18.33
2017-04-03T04:54:33.871Z,18.3
2017-04-03T04:55:02.086Z,18.34
2017-04-03T04:55:30.308Z,18.34
2017-04-03T04:56:41.607Z,18.31
2017-04-03T04:57:09.694Z,18.3
2017-04-03T04:57:37.920Z,18.3
2017-04-03T04:58:06.094Z,18.36
2017-04-03T04:58:34.333Z,18.31
2017-04-03T04:59:02.546Z,18.33
2017-04-03T04:59:30.698Z,18.33
2017-04-03T04:59:58.945Z,18.31
2017-04-03T05:00:27.176Z,18.28
2017-04-03T05:00:55.384Z,18.28
2017-04-03T05:01:23.511Z,18.34
2017-04-03T05:02:34.858Z,18.33
2017-04-03T05:03:02.941Z,18.3
2017-04-03T05:03:31.171Z,18.27
2017-04-03T05:03:59.342Z,18.31
2017-04-03T05:04:27.672Z,18.31
2017-04-03T05:04:55.885Z,18.33
2017-04-03T05:05:24.219Z,18.38
2017-04-03T05:05:52.903Z,18.33
2017-04-03T05:06:21.135Z,18.38
2017-04-03T05:06:49.350Z,18.34
2017-04-03T05:07:17.388Z,18.28
2017-04-03T05:08:28.740Z,18.34
2017-04-03T05:08:56.825Z,18.34
2017-04-03T05:09:24.960Z,18.3
2017-04-03T05:09:53.035Z,18.36
2017-04-03T05:10:21.182Z,18.36
2017-04-03T05:10:49.487Z,18.34
2017-04-03T05:11:17.723Z,18.33
2017-04-03T05:11:46.050Z,18.38
2017-04-03T05:12:14.372Z,18.3
2017-04-03T05:12:42.584Z,18.33
2017-04-03T05:13:10.536Z,18.38
2017-04-03T05:14:21.883Z,18.3
2017-04-03T05:14:49.967Z,18.34
2017-04-03T05:15:18.198Z,18.38
2017-04-03T05:15:46.474Z,18.43
2017-04-03T05:16:14.806Z,18.43
2017-04-03T05:16:43.016Z,18.48
2017-04-03T05:17:11.263Z,18.31
2017-04-03T05:17:39.585Z,18.48
2017-04-03T05:18:07.722Z,18.42
2017-04-03T05:18:36.027Z,18.45
2017-04-03T05:19:04.341Z,18.48
2017-04-03T05:20:15.600Z,18.49
2017-04-03T05:20:43.693Z,18.42
2017-04-03T05:21:11.832Z,18.41
2017-04-03T05:21:40.104Z,18.45
2017-04-03T05:22:08.431Z,18.48
2017-04-03T05:22:36.740Z,18.49
2017-04-03T05:23:04.892Z,18.45
2017-04-03T05:23:33.213Z,18.48
2017-04-03T05:24:01.350Z,18.48
2017-04-03T05:24:29.563Z,18.46
2017-04-03T05:24:57.690Z,18.43
2017-04-03T05:26:09.040Z,18.56
2017-04-03T05:26:37.217Z,18.48
2017-04-03T05:27:05.452Z,18.49
2017-04-03T05:27:33.628Z,18.42
2017-04-03T05:28:01.866Z,18.48
2017-04-03T05:28:30.174Z,18.43
2017-04-03T05:28:58.410Z,18.43
2017-04-03T05:29:26.549Z,18.46
2017-04-03T05:29:54.776Z,18.49
2017-04-03T05:30:22.792Z,18.42
2017-04-03T05:30:51.107Z,18.45
2017-04-03T05:32:02.459Z,18.49
2017-04-03T05:32:30.548Z,18.42
2017-04-03T05:32:58.814Z,18.56
2017-04-03T05:33:27.041Z,18.45
2017-04-03T05:33:55.277Z,18.56
2017-04-03T05:34:23.309Z,18.49
2017-04-03T05:34:51.554Z,18.46
2017-04-03T05:35:19.786Z,18.51
2017-04-03T05:35:48.147Z,18.52
2017-04-03T05:36:16.760Z,18.54
2017-04-03T05:36:45.080Z,18.51
2017-04-03T05:37:56.433Z,18.51
2017-04-03T05:38:24.615Z,18.51
2017-04-03T05:38:52.660Z,18.49
2017-04-03T05:39:20.929Z,18.52
2017-04-03T05:39:49.255Z,18.54
2017-04-03T05:40:17.372Z,18.51
2017-04-03T05:40:45.523Z,18.6
2017-04-03T05:41:13.849Z,18.54
2017-04-03T05:41:42.083Z,18.6
2017-04-03T05:42:10.384Z,18.52
2017-04-03T05:42:38.517Z,18.49
2017-04-03T05:43:49.769Z,18.51
2017-04-03T05:44:18.039Z,18.54
2017-04-03T05:44:46.087Z,18.46
2017-04-03T05:45:14.161Z,18.52
2017-04-03T05:45:42.398Z,18.49
2017-04-03T05:46:10.616Z,18.57
2017-04-03T05:46:38.953Z,18.54
2017-04-03T05:47:07.279Z,18.51
2017-04-03T05:47:35.421Z,18.57
2017-04-03T05:48:03.719Z,18.46
2017-04-03T05:48:31.938Z,18.49
2017-04-03T05:49:43.290Z,18.6
2017-04-03T05:50:11.386Z,18.51
2017-04-03T05:50:39.527Z,18.49
2017-04-03T05:51:07.795Z,18.46
2017-04-03T05:51:36.121Z,18.56
2017-04-03T05:52:04.147Z,18.56
2017-04-03T05:52:32.386Z,18.57
2017-04-03T05:53:00.524Z,18.48
2017-04-03T05:53:28.844Z,18.49
2017-04-03T05:53:57.144Z,18.57
2017-04-03T05:54:25.364Z,18.54
2017-04-03T05:55:36.715Z,18.52
2017-04-03T05:56:04.807Z,18.51
2017-04-03T05:56:33.128Z,18.49
2017-04-03T05:57:01.302Z,18.56
2017-04-03T05:57:29.537Z,18.45
2017-04-03T05:57:57.652Z,18.45
2017-04-03T05:58:25.805Z,18.46
2017-04-03T05:58:53.938Z,18.48
2017-04-03T05:59:22.172Z,18.52
2017-04-03T05:59:50.375Z,18.48
2017-04-03T06:00:18.599Z,18.45
2017-04-03T06:01:29.860Z,18.48
2017-04-03T06:01:58.043Z,18.45
2017-04-03T06:02:26.083Z,18.48
2017-04-03T06:02:54.353Z,18.42
2017-04-03T06:03:22.588Z,18.45
2017-04-03T06:03:50.796Z,18.41
2017-04-03T06:04:19.034Z,18.42
2017-04-03T06:04:47.263Z,18.38
2017-04-03T06:05:15.493Z,18.36
2017-04-03T06:05:43.609Z,18.45
2017-04-03T06:06:11.828Z,18.41
2017-04-03T06:07:23.084Z,18.42
2017-04-03T06:07:51.099Z,18.36
2017-04-03T06:08:19.225Z,18.43
2017-04-03T06:08:47.400Z,18.41
2017-04-03T06:09:15.635Z,18.42
2017-04-03T06:09:43.849Z,18.42
2017-04-03T06:10:12.089Z,18.41
2017-04-03T06:10:40.225Z,18.36
2017-04-03T06:11:08.548Z,18.48
2017-04-03T06:11:36.666Z,18.31
2017-04-03T06:12:04.702Z,18.3
2017-04-03T06:13:15.959Z,18.31
2017-04-03T06:13:44.145Z,18.33
2017-04-03T06:14:12.375Z,18.34
2017-04-03T06:14:40.648Z,18.31
2017-04-03T06:15:08.888Z,18.23
2017-04-03T06:15:37.102Z,18.26
2017-04-03T06:16:05.252Z,18.23
2017-04-03T06:16:33.574Z,18.3
2017-04-03T06:17:01.808Z,18.2
2017-04-03T06:17:30.114Z,18.26
2017-04-03T06:17:58.334Z,18.3
2017-04-03T06:19:09.598Z,18.17
2017-04-03T06:19:37.870Z,18.13
2017-04-03T06:20:06.008Z,18.17
2017-04-03T06:20:34.280Z,18.15
2017-04-03T06:21:02.515Z,18.2
2017-04-03T06:21:30.635Z,18.2
2017-04-03T06:21:58.785Z,18.23
2017-04-03T06:22:27.106Z,18.17
2017-04-03T06:22:55.339Z,18.18
2017-04-03T06:23:23.547Z,18.21
2017-04-03T06:23:51.767Z,18.15
2017-04-03T06:25:03.018Z,18.11
2017-04-03T06:25:31.202Z,18.15
2017-04-03T06:25:59.347Z,18.24
2017-04-03T06:26:27.615Z,18.09
2017-04-03T06:26:55.943Z,18.12
2017-04-03T06:27:24.093Z,18.17
2017-04-03T06:27:52.424Z,18.26
2017-04-03T06:28:20.751Z,18.24
2017-04-03T06:28:48.985Z,18.09
2017-04-03T06:29:17.292Z,18.13
2017-04-03T06:29:45.423Z,18.09
2017-04-03T06:30:56.773Z,18.12
2017-04-03T06:31:24.861Z,18.12
2017-04-03T06:31:53.090Z,18.12
2017-04-03T06:32:21.363Z,18.17
2017-04-03T06:32:49.507Z,18.12
2017-04-03T06:33:17.630Z,18.12
2017-04-03T06:33:45.870Z,18.17
2017-04-03T06:34:14.195Z,18.18
2017-04-03T06:34:42.521Z,18.18
2017-04-03T06:35:10.827Z,18.12
2017-04-03T06:35:39.143Z,18.13
2017-04-03T06:36:50.399Z,18.01
2017-04-03T06:37:18.580Z,18.17
2017-04-03T06:37:46.759Z,18.05
2017-04-03T06:38:14.935Z,18.03
2017-04-03T06:38:43.261Z,18.01
2017-04-03T06:39:11.377Z,17.99
2017-04-03T06:39:39.617Z,18.06
2017-04-03T06:40:07.756Z,18.11
2017-04-03T06:40:35.988Z,18.13
2017-04-03T06:41:04.017Z,18.01
2017-04-03T06:41:32.244Z,18.11
2017-04-03T06:42:43.501Z,18.01
2017-04-03T06:43:11.776Z,18.05
2017-04-03T06:43:39.917Z,18.01
2017-04-03T06:44:08.187Z,18.01
2017-04-03T06:44:36.421Z,18.02
2017-04-03T06:45:04.646Z,18.05
2017-04-03T06:45:32.980Z,18.01
2017-04-03T06:46:01.216Z,18.01
2017-04-03T06:46:29.357Z,18.08
2017-04-03T06:46:57.383Z,18.01
2017-04-03T06:47:25.703Z,18.01
2017-04-03T06:48:36.964Z,18.02
2017-04-03T06:49:05.145Z,17.99
2017-04-03T06:49:33.280Z,18.02
2017-04-03T06:50:01.360Z,18.01
2017-04-03T06:50:29.600Z,18.06
2017-04-03T06:50:57.809Z,18.06
2017-04-03T06:51:25.961Z,18.05
2017-04-03T06:51:54.198Z,18.02
2017-04-03T06:52:22.523Z,18.03
2017-04-03T06:52:50.724Z,18.06
2017-04-03T06:53:18.950Z,17.99
2017-04-03T06:54:30.305Z,18.06
2017-04-03T06:54:58.489Z,18.03
2017-04-03T06:55:26.814Z,18.06
2017-04-03T06:55:54.991Z,18.03